Time;durP1;ratioP1;P1;durP2;ratioP2;P2;SDS_P1;SDS_P2;PMS_P1;PMS_P2;Temp;Humidity;BMP_temperature;BMP_pressure;BME280_temperature;BME280_humidity;BME280_pressure;Samples;Min_cycle;Max_cycle;Signal;HPM_P1;HPM_P2
2023/12/16 00:00:30;;;;;;;87.23;27.20;;;8.70;89.20;;;;;;772558;182;27724;-86
2023/12/16 00:03:03;;;;;;;95.47;31.93;;;8.70;88.10;;;;;;757332;189;26461;-85
2023/12/16 00:05:44;;;;;;;78.03;28.47;;;8.70;88.80;;;;;;776656;182;26479;-85
2023/12/16 00:08:33;;;;;;;;;;;;;;;;;;;;;
2023/12/16 00:11:17;;;;;;;199.43;65.97;;;8.70;88.00;;;;;;769878;180;26894;-89
2023/12/16 00:14:14;;;;;;;205.30;69.77;;;8.60;89.80;;;;;;769490;180;26494;-84
2023/12/16 00:19:59;;;;;;;146.67;47.87;;;8.60;88.30;;;;;;770451;177;26474;-84
2023/12/16 00:22:46;;;;;;;65.33;28.40;;;8.60;87.70;;;;;;746657;190;26568;-85
2023/12/16 00:33:59;;;;;;;107.10;36.60;;;8.60;88.40;;;;;;782996;182;27124;-89
2023/12/16 00:36:38;;;;;;;108.90;40.07;;;8.60;88.00;;;;;;758715;187;26584;-85
2023/12/16 00:39:28;;;;;;;425.13;173.67;;;8.50;88.20;;;;;;786916;179;27032;-88
2023/12/16 00:42:11;;;;;;;170.57;55.97;;;8.50;89.30;;;;;;773879;180;26504;-89
2023/12/16 00:45:08;;;;;;;;;;;;;;;;;;;;;
2023/12/16 00:47:53;;;;;;;;;;;;;;;;;;;;;
2023/12/16 00:53:36;;;;;;;100.87;36.63;;;8.60;88.60;;;;;;784505;182;27164;-86
2023/12/16 00:56:23;;;;;;;66.63;26.43;;;8.50;89.30;;;;;;780979;183;26486;-85
2023/12/16 00:59:09;;;;;;;56.73;18.23;;;8.50;89.40;;;;;;785143;180;26513;-84
2023/12/16 01:01:55;;;;;;;44.70;16.53;;;8.60;89.60;;;;;;781922;176;26526;-85
2023/12/16 01:04:37;;;;;;;48.23;17.10;;;8.60;88.80;;;;;;778200;183;26457;-85
2023/12/16 01:10:11;;;;;;;72.20;24.43;;;8.50;89.10;;;;;;778378;183;26525;-81
2023/12/16 01:12:52;;;;;;;451.43;144.27;;;8.50;87.90;;;;;;777227;182;26506;-85
2023/12/16 01:18:08;;;;;;;72.43;28.67;;;8.50;88.70;;;;;;791447;180;27053;-85
2023/12/16 01:21:08;;;;;;;94.93;30.97;;;8.50;88.10;;;;;;790352;181;26587;-85
2023/12/16 01:24:01;;;;;;;289.53;75.70;;;8.40;88.50;;;;;;789095;179;27030;-85
2023/12/16 01:26:49;;;;;;;205.00;57.00;;;8.40;88.20;;;;;;788776;179;26983;-85
2023/12/16 01:37:54;;;;;;;232.17;68.37;;;8.50;88.40;;;;;;739417;177;26550;-85
2023/12/16 01:40:29;;;;;;;106.73;36.47;;;8.40;87.60;;;;;;753538;186;26644;-86
2023/12/16 01:43:10;;;;;;;40.93;15.30;;;8.40;88.10;;;;;;780621;183;26439;-85
2023/12/16 01:49:02;;;;;;;57.70;20.57;;;8.50;87.70;;;;;;773106;183;26499;-86
2023/12/16 01:52:06;;;;;;;75.90;27.47;;;8.50;87.00;;;;;;781865;178;26459;-87
2023/12/16 01:54:56;;;;;;;58.40;23.27;;;8.40;87.10;;;;;;776715;182;26465;-81
2023/12/16 01:57:36;;;;;;;35.63;12.80;;;8.40;87.20;;;;;;773070;178;26471;-87
2023/12/16 02:00:25;;;;;;;68.80;21.70;;;8.50;86.30;;;;;;776354;180;27160;-85
2023/12/16 02:03:08;;;;;;;;;;;;;;;;;;;;;
2023/12/16 02:05:47;;;;;;;300.83;95.47;;;8.50;89.00;;;;;;753377;187;27238;-84
2023/12/16 02:08:31;;;;;;;213.93;72.23;;;8.50;87.30;;;;;;770885;182;27021;-81
2023/12/16 02:11:17;;;;;;;42.90;14.07;;;8.50;88.40;;;;;;767689;183;26498;-85
2023/12/16 02:13:48;;;;;;;76.10;21.70;;;8.50;87.00;;;;;;765504;186;27719;-88
2023/12/16 02:19:23;;;;;;;40.53;14.20;;;8.40;87.70;;;;;;748907;182;26513;-86
2023/12/16 02:24:55;;;;;;;40.57;13.37;;;8.40;87.80;;;;;;769436;185;26457;-88
2023/12/16 02:33:32;;;;;;;39.63;14.80;;;8.40;88.00;;;;;;763322;184;26496;-87
2023/12/16 02:36:20;;;;;;;;;;;;;;;;;;;;;
2023/12/16 02:39:03;;;;;;;;;;;;;;;;;;;;;
2023/12/16 02:41:35;;;;;;;50.57;18.80;;;8.30;87.10;;;;;;769967;180;26557;-86
2023/12/16 02:47:00;;;;;;;65.07;17.83;;;8.30;86.70;;;;;;776283;184;26452;-82
2023/12/16 02:52:17;;;;;;;61.63;19.73;;;8.30;87.20;;;;;;778422;183;26452;-85
2023/12/16 02:57:35;;;;;;;43.03;13.03;;;8.30;86.60;;;;;;773876;182;26435;-85
2023/12/16 03:00:10;;;;;;;33.23;9.97;;;8.30;87.90;;;;;;776508;181;27093;-84
2023/12/16 03:02:37;;;;;;;30.57;10.73;;;8.30;86.50;;;;;;760709;180;27140;-87
2023/12/16 03:05:09;;;;;;;31.90;9.00;;;8.30;87.80;;;;;;760963;187;26540;-88
2023/12/16 03:07:35;;;;;;;38.13;10.23;;;8.30;85.60;;;;;;766028;186;27099;-87
2023/12/16 03:10:02;;;;;;;31.97;10.30;;;8.30;86.30;;;;;;767337;184;26518;-87
2023/12/16 03:12:29;;;;;;;36.87;12.33;;;8.30;85.10;;;;;;767540;186;26518;-87
2023/12/16 03:14:55;;;;;;;39.20;15.27;;;8.30;87.90;;;;;;776400;182;27078;-87
2023/12/16 03:17:22;;;;;;;26.07;10.67;;;8.30;88.10;;;;;;763142;185;26497;-87
2023/12/16 03:19:50;;;;;;;30.00;10.23;;;8.30;85.80;;;;;;765265;187;26649;-87
2023/12/16 03:22:17;;;;;;;58.80;22.73;;;8.30;86.40;;;;;;778461;183;26500;-86
2023/12/16 03:24:43;;;;;;;61.73;23.70;;;8.30;86.00;;;;;;775576;184;26530;-87
2023/12/16 03:27:10;;;;;;;49.30;17.07;;;8.30;87.50;;;;;;777421;183;27043;-87
2023/12/16 03:29:36;;;;;;;38.33;13.10;;;8.30;86.10;;;;;;776614;184;27061;-87
2023/12/16 03:32:03;;;;;;;53.47;17.13;;;8.30;88.00;;;;;;775453;184;26513;-87
2023/12/16 03:34:30;;;;;;;46.77;16.03;;;8.30;87.10;;;;;;775101;183;26526;-86
2023/12/16 03:36:56;;;;;;;81.77;23.83;;;8.30;85.00;;;;;;775976;183;26501;-87
2023/12/16 03:39:23;;;;;;;49.33;16.17;;;8.30;86.30;;;;;;776633;183;26498;-87
2023/12/16 03:41:49;;;;;;;63.83;21.17;;;8.30;85.10;;;;;;775594;183;26488;-87
2023/12/16 03:44:16;;;;;;;44.77;16.03;;;8.30;84.70;;;;;;775411;184;26526;-87
2023/12/16 03:46:42;;;;;;;38.00;11.53;;;8.30;84.50;;;;;;777563;183;26489;-87
2023/12/16 03:49:09;;;;;;;34.27;11.27;;;8.30;84.90;;;;;;777360;184;26615;-89
2023/12/16 03:51:36;;;;;;;31.00;11.00;;;8.30;84.20;;;;;;778142;184;27029;-88
2023/12/16 03:54:02;;;;;;;33.83;12.03;;;8.40;85.70;;;;;;778335;184;26500;-87
2023/12/16 03:56:35;;;;;;;32.00;11.90;;;8.30;85.00;;;;;;776428;183;27056;-87
2023/12/16 03:59:02;;;;;;;30.83;9.53;;;8.40;84.60;;;;;;777877;183;27074;-88
2023/12/16 04:01:29;;;;;;;29.00;10.30;;;8.30;83.50;;;;;;778747;184;26509;-86
2023/12/16 04:03:55;;;;;;;25.87;9.30;;;8.30;83.80;;;;;;778923;184;27056;-87
2023/12/16 04:06:22;;;;;;;29.17;9.17;;;8.30;83.00;;;;;;777083;183;26509;-88
2023/12/16 04:08:48;;;;;;;36.33;9.17;;;8.30;82.20;;;;;;779582;183;27035;-88
2023/12/16 04:11:15;;;;;;;24.47;9.03;;;8.30;82.50;;;;;;777718;184;26493;-88
2023/12/16 04:13:41;;;;;;;30.87;10.03;;;8.40;82.40;;;;;;777280;184;27035;-87
2023/12/16 04:16:08;;;;;;;30.93;9.07;;;8.40;84.60;;;;;;777877;183;26558;-87
2023/12/16 04:18:35;;;;;;;36.30;9.70;;;8.40;82.10;;;;;;777001;183;26490;-87
2023/12/16 04:21:01;;;;;;;27.83;10.07;;;8.40;81.00;;;;;;777004;183;26491;-87
2023/12/16 04:23:28;;;;;;;31.53;8.90;;;8.40;82.40;;;;;;775639;185;26501;-88
2023/12/16 04:25:54;;;;;;;27.33;9.30;;;8.40;81.70;;;;;;775991;184;28823;-88
2023/12/16 04:28:21;;;;;;;27.93;8.47;;;8.40;80.90;;;;;;775789;183;26508;-89
2023/12/16 04:30:48;;;;;;;35.73;11.37;;;8.40;81.30;;;;;;778796;182;27096;-90
2023/12/16 04:33:14;;;;;;;38.07;10.57;;;8.40;80.70;;;;;;778810;183;26496;-91
2023/12/16 04:35:41;;;;;;;25.13;8.93;;;8.40;80.50;;;;;;779509;183;26493;-90
2023/12/16 04:38:07;;;;;;;36.30;12.70;;;8.40;80.80;;;;;;778807;183;26497;-88
2023/12/16 04:40:35;;;;;;;93.77;31.93;;;8.50;81.90;;;;;;776134;184;26558;-88
2023/12/16 04:43:05;;;;;;;90.40;30.33;;;8.50;79.80;;;;;;776420;184;26606;-87
2023/12/16 04:45:36;;;;;;;192.93;65.13;;;8.50;79.70;;;;;;776458;183;27016;-87
2023/12/16 04:48:06;;;;;;;69.07;23.10;;;8.50;79.10;;;;;;775565;184;26488;-88
2023/12/16 04:50:36;;;;;;;29.93;9.07;;;8.50;79.40;;;;;;776609;181;27049;-87
2023/12/16 04:53:05;;;;;;;27.70;7.10;;;8.50;80.80;;;;;;776512;183;26504;-87
2023/12/16 04:55:33;;;;;;;30.10;7.73;;;8.50;79.80;;;;;;775766;185;26469;-88
2023/12/16 04:58:03;;;;;;;19.07;6.93;;;8.50;79.90;;;;;;776082;182;26536;-88
2023/12/16 05:00:29;;;;;;;24.80;7.03;;;8.60;80.10;;;;;;775995;184;26510;-88
2023/12/16 05:02:56;;;;;;;28.87;8.50;;;8.60;80.70;;;;;;778057;183;27078;-88
2023/12/16 05:05:22;;;;;;;25.77;8.67;;;8.60;81.80;;;;;;776695;183;26481;-88
2023/12/16 05:07:49;;;;;;;26.47;7.80;;;8.50;80.80;;;;;;775888;183;26473;-87
2023/12/16 05:10:19;;;;;;;27.40;8.10;;;8.50;81.10;;;;;;776801;182;26488;-87
2023/12/16 05:12:45;;;;;;;17.30;7.03;;;8.50;81.90;;;;;;782120;180;26523;-88
2023/12/16 05:15:12;;;;;;;27.37;8.37;;;8.50;81.60;;;;;;777698;182;26530;-87
2023/12/16 05:17:44;;;;;;;20.87;7.67;;;8.50;82.80;;;;;;778561;183;27029;-87
2023/12/16 05:20:14;;;;;;;29.70;7.37;;;8.50;81.70;;;;;;777543;183;26480;-87
2023/12/16 05:22:41;;;;;;;24.67;7.60;;;8.50;82.40;;;;;;777011;184;26528;-88
2023/12/16 05:25:12;;;;;;;23.97;6.50;;;8.60;82.10;;;;;;777062;184;27070;-87
2023/12/16 05:27:40;;;;;;;21.90;6.73;;;8.60;81.70;;;;;;777574;183;26485;-87
2023/12/16 05:30:07;;;;;;;21.67;6.57;;;8.60;80.50;;;;;;777900;184;26520;-88
2023/12/16 05:32:34;;;;;;;25.83;7.53;;;8.50;81.80;;;;;;775194;185;26509;-87
2023/12/16 05:35:14;;;;;;;25.57;7.03;;;8.50;81.20;;;;;;779037;183;26489;-87
2023/12/16 05:37:43;;;;;;;22.40;6.47;;;8.50;81.60;;;;;;777632;184;26496;-87
2023/12/16 05:40:14;;;;;;;21.83;6.33;;;8.50;81.20;;;;;;775426;184;26478;-87
2023/12/16 05:42:44;;;;;;;23.97;7.77;;;8.50;81.40;;;;;;775625;184;26507;-87
2023/12/16 05:47:51;;;;;;;21.40;6.70;;;8.50;83.00;;;;;;776353;183;27074;-87
2023/12/16 05:50:20;;;;;;;27.97;6.30;;;8.50;82.20;;;;;;777005;184;26554;-87
2023/12/16 05:52:47;;;;;;;25.73;7.17;;;8.60;81.00;;;;;;777020;182;26548;-89
2023/12/16 05:55:19;;;;;;;21.50;5.60;;;8.60;81.40;;;;;;776990;184;26479;-88
2023/12/16 05:57:53;;;;;;;19.50;5.60;;;8.60;80.70;;;;;;776108;184;26506;-87
2023/12/16 06:00:22;;;;;;;18.53;5.57;;;8.60;81.20;;;;;;775813;184;26539;-87
2023/12/16 06:02:52;;;;;;;19.80;5.57;;;8.50;80.20;;;;;;774864;185;26660;-87
2023/12/16 06:05:23;;;;;;;27.03;6.20;;;8.50;81.60;;;;;;775921;183;27096;-87
2023/12/16 06:07:50;;;;;;;23.67;7.83;;;8.50;80.80;;;;;;779867;183;27030;-89
2023/12/16 06:10:17;;;;;;;22.90;5.87;;;8.50;80.50;;;;;;775839;184;26489;-88
2023/12/16 06:12:43;;;;;;;20.33;5.93;;;8.50;81.20;;;;;;779709;183;27032;-88
2023/12/16 06:15:10;;;;;;;24.07;5.73;;;8.50;81.90;;;;;;778610;183;26496;-88
2023/12/16 06:17:36;;;;;;;26.07;6.83;;;8.50;81.40;;;;;;778891;183;27046;-90
2023/12/16 06:20:04;;;;;;;22.40;5.90;;;8.50;81.70;;;;;;778075;183;26476;-88
2023/12/16 06:22:30;;;;;;;17.17;5.33;;;8.50;81.20;;;;;;778052;182;26510;-88
2023/12/16 06:24:58;;;;;;;23.00;6.30;;;8.50;80.40;;;;;;779168;184;27046;-89
2023/12/16 06:27:24;;;;;;;21.30;6.20;;;8.50;80.90;;;;;;779371;183;26501;-88
2023/12/16 06:29:54;;;;;;;25.17;6.80;;;8.50;82.00;;;;;;779804;183;26473;-89
2023/12/16 06:32:25;;;;;;;22.30;6.40;;;8.50;79.80;;;;;;779039;182;26490;-88
2023/12/16 06:34:53;;;;;;;16.70;5.97;;;8.50;81.80;;;;;;780162;183;26549;-88
2023/12/16 06:37:20;;;;;;;21.17;6.53;;;8.50;81.00;;;;;;779902;183;26511;-88
2023/12/16 06:39:47;;;;;;;20.60;6.90;;;8.50;80.60;;;;;;777705;183;26611;-88
2023/12/16 06:42:13;;;;;;;22.30;6.27;;;8.50;81.20;;;;;;776973;184;26547;-88
2023/12/16 06:44:44;;;;;;;18.97;5.60;;;8.50;80.00;;;;;;776940;184;26497;-89
2023/12/16 06:47:15;;;;;;;21.30;6.50;;;8.50;80.20;;;;;;777793;184;26496;-88
2023/12/16 06:49:44;;;;;;;27.73;7.53;;;8.50;82.50;;;;;;779375;183;26513;-89
2023/12/16 06:52:15;;;;;;;22.33;6.67;;;8.50;80.60;;;;;;777785;184;26511;-90
2023/12/16 06:54:45;;;;;;;20.23;7.07;;;8.50;80.50;;;;;;777420;184;27070;-89
2023/12/16 06:57:17;;;;;;;24.17;6.17;;;8.50;81.60;;;;;;779024;184;27065;-88
2023/12/16 06:59:51;;;;;;;26.00;7.20;;;8.50;81.20;;;;;;777524;183;26572;-88
2023/12/16 07:02:19;;;;;;;25.53;6.03;;;8.50;79.80;;;;;;776779;183;26542;-88
2023/12/16 07:04:47;;;;;;;25.13;6.87;;;8.50;80.30;;;;;;778686;184;26485;-88
2023/12/16 07:07:20;;;;;;;29.60;7.47;;;8.50;83.20;;;;;;776550;181;28132;-88
2023/12/16 07:09:46;;;;;;;32.83;7.30;;;8.50;82.30;;;;;;778019;183;26501;-88
2023/12/16 07:12:13;;;;;;;25.90;7.63;;;8.50;82.30;;;;;;776300;184;26501;-88
2023/12/16 07:14:44;;;;;;;33.57;7.20;;;8.50;81.30;;;;;;778052;183;27042;-87
2023/12/16 07:17:27;;;;;;;23.33;6.93;;;8.50;81.70;;;;;;775608;185;26477;-88
2023/12/16 07:20:00;;;;;;;25.93;8.30;;;8.50;81.50;;;;;;776744;184;26469;-87
2023/12/16 07:22:35;;;;;;;31.83;8.00;;;8.50;81.60;;;;;;774830;182;27031;-88
2023/12/16 07:25:12;;;;;;;30.80;7.77;;;8.50;82.30;;;;;;776682;183;26481;-88
2023/12/16 07:27:41;;;;;;;30.23;8.70;;;8.50;81.70;;;;;;780259;184;26514;-88
2023/12/16 07:30:16;;;;;;;31.20;6.90;;;8.50;83.60;;;;;;775956;184;26480;-88
2023/12/16 07:32:53;;;;;;;27.80;6.93;;;8.50;82.00;;;;;;776195;184;26520;-87
2023/12/16 07:35:22;;;;;;;24.27;8.00;;;8.50;82.20;;;;;;778613;183;27048;-88
2023/12/16 07:37:59;;;;;;;28.07;7.20;;;8.50;81.40;;;;;;782529;183;26535;-88
2023/12/16 07:40:31;;;;;;;26.70;6.37;;;8.60;81.20;;;;;;780647;183;26496;-88
2023/12/16 07:43:10;;;;;;;24.07;6.23;;;8.60;80.80;;;;;;778433;183;26555;-87
2023/12/16 07:45:43;;;;;;;29.83;7.70;;;8.60;81.40;;;;;;777248;184;26480;-87
2023/12/16 07:48:14;;;;;;;28.47;7.23;;;8.60;83.40;;;;;;776083;184;26662;-88
2023/12/16 07:50:47;;;;;;;28.97;7.43;;;8.60;82.10;;;;;;775776;185;27050;-87
2023/12/16 07:53:20;;;;;;;29.30;7.00;;;8.60;82.10;;;;;;775361;185;27025;-88
2023/12/16 07:55:51;;;;;;;36.37;7.50;;;8.60;82.10;;;;;;776999;183;26497;-87
2023/12/16 07:58:21;;;;;;;28.73;7.37;;;8.60;83.80;;;;;;777769;183;26485;-88
2023/12/16 08:00:50;;;;;;;23.37;6.87;;;8.50;82.80;;;;;;779058;184;27092;-87
2023/12/16 08:03:26;;;;;;;29.73;7.37;;;8.50;83.30;;;;;;776010;182;26559;-87
2023/12/16 08:06:01;;;;;;;31.17;7.93;;;8.60;82.50;;;;;;775809;185;29355;-87
2023/12/16 08:08:28;;;;;;;26.07;6.97;;;8.60;82.60;;;;;;777366;183;27142;-88
2023/12/16 08:10:55;;;;;;;22.00;6.53;;;8.60;82.60;;;;;;775923;185;26485;-87
2023/12/16 08:13:30;;;;;;;25.83;5.93;;;8.60;83.50;;;;;;774580;183;26529;-88
2023/12/16 08:16:08;;;;;;;40.07;12.97;;;8.50;83.10;;;;;;780452;183;26521;-87
2023/12/16 08:18:40;;;;;;;30.53;8.73;;;8.50;83.70;;;;;;776000;182;26481;-87
2023/12/16 08:21:20;;;;;;;32.67;6.63;;;8.50;83.50;;;;;;775485;184;26510;-87
2023/12/16 08:24:10;;;;;;;28.17;6.33;;;8.50;82.70;;;;;;775258;184;26535;-87
2023/12/16 08:26:40;;;;;;;27.03;5.73;;;8.50;82.90;;;;;;777285;183;26784;-88
2023/12/16 08:29:09;;;;;;;24.20;6.20;;;8.50;82.30;;;;;;776462;184;26539;-87
2023/12/16 08:31:47;;;;;;;26.63;6.20;;;8.60;82.10;;;;;;777893;183;26497;-88
2023/12/16 08:34:22;;;;;;;26.73;5.50;;;8.70;82.80;;;;;;777109;184;26529;-87
2023/12/16 08:36:52;;;;;;;27.27;6.40;;;8.70;81.80;;;;;;777106;184;26479;-88
2023/12/16 08:39:23;;;;;;;25.90;6.90;;;8.80;83.30;;;;;;781361;183;27057;-88
2023/12/16 08:41:56;;;;;;;24.27;7.30;;;8.80;81.50;;;;;;777944;183;26515;-88
2023/12/16 08:44:27;;;;;;;21.33;5.97;;;8.90;81.50;;;;;;776859;184;26519;-87
2023/12/16 08:46:58;;;;;;;26.90;7.00;;;8.90;81.00;;;;;;779474;183;26493;-88
2023/12/16 08:49:33;;;;;;;22.53;7.73;;;8.90;83.20;;;;;;779529;184;27078;-87
2023/12/16 08:52:06;;;;;;;30.70;8.47;;;8.90;81.20;;;;;;778697;183;26491;-89
2023/12/16 08:54:41;;;;;;;40.23;7.33;;;8.90;81.50;;;;;;779196;184;26653;-88
2023/12/16 08:59:44;;;;;;;24.20;6.53;;;8.80;82.30;;;;;;778244;180;26493;-87
2023/12/16 09:02:11;;;;;;;27.13;6.20;;;8.80;83.40;;;;;;778914;179;26537;-85
2023/12/16 09:10:18;;;;;;;28.20;7.10;;;8.70;82.80;;;;;;768254;185;26463;-85
2023/12/16 09:13:05;;;;;;;;;;;;;;;;;;;;;
2023/12/16 09:15:52;;;;;;;27.07;7.50;;;8.80;84.90;;;;;;772548;183;26515;-87
2023/12/16 09:18:35;;;;;;;26.73;7.23;;;8.80;83.50;;;;;;785223;181;26459;-86
2023/12/16 09:21:27;;;;;;;27.97;7.73;;;8.90;83.80;;;;;;791381;180;26448;-90
2023/12/16 09:24:03;;;;;;;32.03;7.07;;;9.00;85.60;;;;;;790232;173;26559;-86
2023/12/16 09:26:39;;;;;;;31.50;7.17;;;9.00;82.80;;;;;;805149;177;26417;-87
2023/12/16 09:29:26;;;;;;;22.23;7.07;;;9.10;82.80;;;;;;809984;175;26982;-86
2023/12/16 09:32:06;;;;;;;26.37;7.57;;;9.20;81.40;;;;;;799090;177;26433;-88
2023/12/16 09:40:16;;;;;;;26.20;7.33;;;9.40;81.10;;;;;;738979;175;26999;-85
2023/12/16 09:43:01;;;;;;;25.33;7.00;;;9.60;81.00;;;;;;785105;181;27081;-85
2023/12/16 09:45:43;;;;;;;40.80;10.80;;;9.80;80.20;;;;;;781599;179;27100;-85
2023/12/16 09:48:42;;;;;;;;;;;;;;;;;;;;;
2023/12/16 09:51:18;;;;;;;31.97;8.77;;;10.20;75.40;;;;;;782845;176;27120;-85
2023/12/16 09:54:05;;;;;;;33.37;10.83;;;10.10;75.90;;;;;;764255;183;26570;-86
2023/12/16 09:56:49;;;;;;;37.67;13.63;;;10.10;77.10;;;;;;773442;181;26512;-87
2023/12/16 09:59:35;;;;;;;35.77;11.10;;;10.00;76.50;;;;;;783527;182;26487;-86
2023/12/16 10:02:19;;;;;;;56.97;15.33;;;9.80;78.80;;;;;;773191;183;26789;-85
2023/12/16 10:05:26;;;;;;;47.67;16.40;;;9.80;78.20;;;;;;772336;184;27109;-85
2023/12/16 10:07:51;;;;;;;30.53;8.57;;;9.80;77.60;;;;;;797245;177;26998;-87
2023/12/16 10:10:18;;;;;;;28.03;8.53;;;10.00;77.30;;;;;;807958;178;26399;-88
2023/12/16 10:12:44;;;;;;;27.03;7.50;;;10.10;76.50;;;;;;797657;180;26451;-87
2023/12/16 10:15:11;;;;;;;23.73;7.23;;;10.00;75.90;;;;;;829027;172;26381;-88
2023/12/16 10:17:37;;;;;;;23.97;6.60;;;10.10;74.80;;;;;;796700;179;26449;-89
2023/12/16 10:20:05;;;;;;;23.90;6.07;;;10.10;77.00;;;;;;800673;178;26466;-87
2023/12/16 10:22:31;;;;;;;31.07;10.13;;;10.20;74.60;;;;;;814038;175;26964;-87
2023/12/16 10:24:58;;;;;;;34.50;8.17;;;10.30;76.60;;;;;;828381;171;26377;-88
2023/12/16 10:27:24;;;;;;;23.27;5.93;;;10.30;74.50;;;;;;806646;177;26453;-88
2023/12/16 10:29:52;;;;;;;23.50;6.50;;;10.30;74.70;;;;;;802222;175;27413;-89
2023/12/16 10:32:17;;;;;;;21.30;4.83;;;10.30;75.70;;;;;;825497;173;26422;-87
2023/12/16 10:34:44;;;;;;;32.23;6.67;;;10.40;73.40;;;;;;828777;172;26418;-89
2023/12/16 10:37:11;;;;;;;28.67;8.40;;;10.50;75.00;;;;;;804711;176;26957;-89
2023/12/16 10:39:46;;;;;;;36.60;8.60;;;10.60;73.60;;;;;;805827;176;26459;-89
2023/12/16 10:42:18;;;;;;;51.93;13.73;;;10.70;73.10;;;;;;802579;176;27009;-87
2023/12/16 10:44:51;;;;;;;30.50;9.00;;;10.70;72.60;;;;;;826064;173;26415;-89
2023/12/16 10:47:18;;;;;;;25.10;6.97;;;10.90;74.00;;;;;;825501;173;27030;-87
2023/12/16 10:49:45;;;;;;;24.63;5.80;;;11.10;72.00;;;;;;825516;173;26425;-87
2023/12/16 10:52:12;;;;;;;25.80;8.03;;;11.30;72.20;;;;;;825614;173;26558;-89
2023/12/16 10:54:40;;;;;;;29.63;7.40;;;11.40;72.10;;;;;;825836;172;26400;-88
2023/12/16 10:57:24;;;;;;;25.07;6.40;;;11.60;70.70;;;;;;825874;170;26948;-89
2023/12/16 10:59:56;;;;;;;26.70;7.50;;;11.60;69.50;;;;;;818868;172;26442;-87
2023/12/16 11:02:23;;;;;;;20.07;7.60;;;11.60;72.30;;;;;;825409;171;26462;-88
2023/12/16 11:19:03;;;;;;;41.67;13.83;;;12.60;67.30;;;;;;795424;170;26489;-85
2023/12/16 11:24:28;;;;;;;34.33;11.33;;;12.60;64.40;;;;;;793967;179;27053;-86
2023/12/16 11:27:10;;;;;;;;;;;;;;;;;;;;;
2023/12/16 11:30:03;;;;;;;39.47;13.00;;;12.50;66.60;;;;;;787079;180;26507;-85
2023/12/16 11:49:32;;;;;;;50.73;16.23;;;12.40;67.60;;;;;;784084;181;26458;-89
2023/12/16 12:17:17;;;;;;;36.30;9.30;;;11.90;73.90;;;;;;809617;173;27130;-91
2023/12/16 12:26:08;;;;;;;67.73;21.73;;;12.00;75.30;;;;;;794566;172;26626;-88
2023/12/16 12:29:04;;;;;;;48.83;14.33;;;12.10;73.70;;;;;;787812;181;26483;-91
2023/12/16 12:34:56;;;;;;;64.07;23.00;;;12.00;73.30;;;;;;787102;175;28160;-88
2023/12/16 12:37:22;;;;;;;73.97;21.03;;;12.00;74.60;;;;;;772276;184;27051;-90
2023/12/16 12:39:48;;;;;;;66.73;19.00;;;11.90;75.80;;;;;;775085;183;27056;-90
2023/12/16 12:42:18;;;;;;;90.27;29.97;;;11.90;75.00;;;;;;752806;186;27063;-90
2023/12/16 12:44:54;;;;;;;426.83;145.80;;;11.90;76.10;;;;;;752907;190;26581;-86
2023/12/16 12:47:30;;;;;;;87.33;28.63;;;11.70;75.30;;;;;;757957;186;26474;-88
2023/12/16 12:49:57;;;;;;;89.80;29.13;;;11.50;75.80;;;;;;760532;186;26503;-88
2023/12/16 12:52:34;;;;;;;193.10;55.47;;;11.60;76.70;;;;;;743651;192;26519;-87
2023/12/16 12:55:00;;;;;;;77.90;26.83;;;11.60;76.50;;;;;;773264;183;26650;-88
2023/12/16 12:57:27;;;;;;;71.43;24.87;;;11.60;76.70;;;;;;774199;184;26476;-87
2023/12/16 13:00:03;;;;;;;108.33;29.27;;;11.50;76.90;;;;;;776344;185;26495;-87
2023/12/16 13:02:40;;;;;;;83.93;26.23;;;11.40;77.40;;;;;;774590;184;26466;-86
2023/12/16 13:05:06;;;;;;;279.67;81.07;;;11.40;78.50;;;;;;774164;184;26486;-87
2023/12/16 13:07:49;;;;;;;115.33;36.53;;;11.30;79.10;;;;;;767577;185;26490;-86
2023/12/16 13:10:19;;;;;;;126.77;41.90;;;11.30;79.30;;;;;;766176;186;26470;-86
2023/12/16 13:12:57;;;;;;;;;;;;;;;;;;;;;
2023/12/16 13:15:49;;;;;;;75.57;27.13;;;11.30;78.70;;;;;;775750;184;27022;-87
2023/12/16 13:18:16;;;;;;;88.00;31.00;;;11.30;80.30;;;;;;780811;180;26463;-87
2023/12/16 13:20:43;;;;;;;259.40;88.07;;;11.40;79.30;;;;;;779909;183;26480;-87
2023/12/16 13:23:09;;;;;;;194.07;63.87;;;11.40;79.40;;;;;;771300;185;27035;-88
2023/12/16 13:25:53;;;;;;;180.90;59.27;;;11.40;79.70;;;;;;765175;185;27071;-87
2023/12/16 13:28:27;;;;;;;131.10;48.70;;;11.30;78.70;;;;;;776264;183;27067;-86
2023/12/16 13:30:58;;;;;;;87.20;30.73;;;11.30;79.90;;;;;;774185;185;26467;-87
2023/12/16 13:33:35;;;;;;;205.60;71.77;;;11.20;80.30;;;;;;774749;183;27052;-86
2023/12/16 13:36:04;;;;;;;276.80;85.43;;;11.20;81.80;;;;;;778394;184;27075;-86
2023/12/16 13:38:37;;;;;;;135.90;41.60;;;11.30;81.40;;;;;;773522;184;26496;-87
2023/12/16 13:41:14;;;;;;;159.17;53.67;;;11.20;80.30;;;;;;777308;183;26518;-87
2023/12/16 13:43:42;;;;;;;174.80;53.60;;;11.20;81.10;;;;;;776661;181;27068;-86
2023/12/16 13:46:25;;;;;;;212.63;64.93;;;11.10;80.90;;;;;;776513;185;26543;-86
2023/12/16 13:48:52;;;;;;;65.90;19.57;;;11.10;81.90;;;;;;765733;185;27163;-85
2023/12/16 13:51:22;;;;;;;69.17;20.47;;;11.10;82.50;;;;;;772320;183;26481;-88
2023/12/16 13:56:35;;;;;;;306.43;101.03;;;11.00;82.70;;;;;;772773;184;26505;-87
2023/12/16 13:59:01;;;;;;;54.20;16.87;;;11.00;83.10;;;;;;772230;184;26508;-87
2023/12/16 14:01:38;;;;;;;54.40;18.23;;;11.00;82.50;;;;;;772094;184;26494;-87
2023/12/16 14:04:14;;;;;;;381.03;129.77;;;11.10;82.30;;;;;;773035;177;27460;-89
2023/12/16 14:12:14;;;;;;;63.97;22.77;;;11.00;82.60;;;;;;780458;180;26481;-89
2023/12/16 14:14:41;;;;;;;199.03;57.07;;;11.00;82.90;;;;;;774199;184;26587;-89
2023/12/16 14:17:08;;;;;;;121.80;39.10;;;11.00;83.20;;;;;;771480;185;26500;-89
2023/12/16 14:19:34;;;;;;;145.03;44.90;;;10.90;83.80;;;;;;799573;178;26435;-90
2023/12/16 14:22:08;;;;;;;177.37;54.20;;;10.80;83.90;;;;;;800776;174;26454;-89
2023/12/16 14:24:34;;;;;;;80.33;31.83;;;10.90;84.20;;;;;;799543;178;26478;-90
2023/12/16 14:27:13;;;;;;;337.70;117.17;;;10.80;84.00;;;;;;798991;178;26426;-90
2023/12/16 14:29:39;;;;;;;168.47;50.93;;;10.90;86.00;;;;;;801599;177;26449;-89
2023/12/16 14:32:15;;;;;;;226.07;69.93;;;10.90;84.70;;;;;;799805;177;26427;-88
2023/12/16 14:34:48;;;;;;;197.27;60.77;;;10.90;85.40;;;;;;799174;178;26477;-89
2023/12/16 14:37:24;;;;;;;139.20;47.10;;;10.80;85.40;;;;;;799803;178;26471;-89
2023/12/16 14:42:28;;;;;;;95.50;34.77;;;10.80;87.10;;;;;;770384;185;27044;-87
2023/12/16 14:44:55;;;;;;;224.67;78.87;;;10.70;86.30;;;;;;770751;184;26529;-87
2023/12/16 14:47:21;;;;;;;265.50;84.83;;;10.70;87.40;;;;;;770483;184;26526;-87
2023/12/16 14:49:48;;;;;;;132.90;41.03;;;10.70;87.40;;;;;;777948;184;26508;-88
2023/12/16 14:52:23;;;;;;;243.10;72.43;;;10.70;87.30;;;;;;778620;184;26515;-86
2023/12/16 14:54:52;;;;;;;160.03;54.03;;;10.70;88.30;;;;;;778415;184;26493;-88
2023/12/16 14:57:23;;;;;;;185.77;65.33;;;10.70;88.00;;;;;;800961;178;26454;-86
2023/12/16 14:59:49;;;;;;;117.57;37.23;;;10.70;87.70;;;;;;801662;179;26413;-86
2023/12/16 15:05:00;;;;;;;206.47;73.40;;;10.60;87.80;;;;;;802438;178;26513;-88
2023/12/16 15:07:25;;;;;;;124.87;40.50;;;10.60;88.30;;;;;;799770;178;26438;-88
2023/12/16 15:09:53;;;;;;;406.13;131.67;;;10.60;88.20;;;;;;800601;178;26411;-88
2023/12/16 15:12:18;;;;;;;389.30;127.03;;;10.60;88.30;;;;;;798979;175;26453;-89
2023/12/16 15:14:45;;;;;;;310.90;99.73;;;10.60;88.80;;;;;;800125;175;26469;-88
2023/12/16 15:17:12;;;;;;;376.80;111.50;;;10.60;88.20;;;;;;803072;179;26472;-88
2023/12/16 15:19:38;;;;;;;333.53;101.53;;;10.60;88.10;;;;;;800745;178;26428;-88
2023/12/16 15:22:05;;;;;;;311.80;93.77;;;10.60;88.00;;;;;;801672;179;26482;-88
2023/12/16 15:24:31;;;;;;;127.50;40.33;;;10.60;89.00;;;;;;803165;178;26530;-88
2023/12/16 15:27:02;;;;;;;165.47;57.23;;;10.60;88.40;;;;;;802423;179;26477;-88
2023/12/16 15:29:29;;;;;;;274.60;95.20;;;10.60;89.20;;;;;;802257;179;26433;-88
2023/12/16 15:31:58;;;;;;;148.33;53.23;;;10.60;88.80;;;;;;799762;179;27060;-90
2023/12/16 15:34:24;;;;;;;67.30;24.50;;;10.50;88.60;;;;;;766237;185;26501;-89
2023/12/16 15:36:51;;;;;;;248.07;81.97;;;10.50;89.20;;;;;;798878;180;27002;-88
2023/12/16 15:39:23;;;;;;;90.87;34.97;;;10.60;89.40;;;;;;799025;180;26452;-88
2023/12/16 15:41:50;;;;;;;261.90;86.93;;;10.60;89.00;;;;;;799037;180;26432;-88
2023/12/16 15:44:19;;;;;;;88.17;31.33;;;10.60;89.50;;;;;;800952;179;26499;-88
2023/12/16 15:46:43;;;;;;;254.53;80.87;;;10.60;89.40;;;;;;801071;178;27028;-89